EDT,Max TemperatureF,Mean TemperatureF,Min TemperatureF,Max Dew PointF,MeanDew PointF,Min DewpointF,Max Humidity, Mean Humidity, Min Humidity, Max Sea Level PressureIn, Mean Sea Level PressureIn, Min Sea Level PressureIn, Max VisibilityMiles, Mean VisibilityMiles, Min VisibilityMiles, Max Wind SpeedMPH, Mean Wind SpeedMPH, Max Gust SpeedMPH,PrecipitationIn, CloudCover, Events, WindDirDegrees
2013-5-1,83,67,50,60,53,50,100,67,34,30.12,30.09,30.02,10,10,10,12,3,16,0.00,0,,152
2013-5-2,79,68,56,58,55,52,100,70,40,30.16,30.09,30.04,10,10,10,15,7,20,0.00,2,,144
2013-5-3,76,68,60,63,57,52,100,72,43,30.04,29.94,29.86,10,10,7,18,7,25,0.15,4,Rain-Thunderstorm,143
2013-5-4,63,58,53,59,53,44,100,78,55,30.00,29.94,29.88,10,9,4,18,7,24,0.36,6,Rain,136
2013-5-5,55,54,52,55,53,50,100,97,93,29.99,29.92,29.89,10,7,2,15,9,23,0.95,8,Rain,66
2013-5-6,66,59,52,55,54,52,100,82,63,29.96,29.90,29.86,10,10,5,13,8,17,0.07,8,Rain,59
2013-5-7,73,65,56,58,55,52,100,75,49,29.99,29.96,29.93,10,10,10,13,5,16,T,6,,30
2013-5-8,77,65,52,61,55,50,100,72,43,30.01,29.98,29.94,10,8,1,13,2,17,T,3,Thunderstorm,352
2013-5-9,79,66,53,65,60,51,100,70,39,30.01,29.96,29.88,10,8,2,17,5,25,0.58,5,Rain-Thunderstorm,191
2013-5-10,67,60,52,64,61,52,100,94,87,29.91,29.86,29.81,10,9,2,14,6,18,0.17,6,Rain,260
2013-5-11,64,55,46,52,45,28,100,69,37,30.05,29.95,29.90,10,10,9,17,6,29,0.00,6,,296
2013-5-12,57,48,38,38,30,25,86,59,32,30.15,30.11,30.06,10,10,10,18,6,25,0.00,1,,294
2013-5-13,65,50,35,42,33,27,92,58,24,30.21,30.16,30.12,10,10,10,16,4,22,0.00,0,,279
2013-5-14,84,65,46,58,48,34,71,56,40,30.12,29.95,29.83,10,10,10,22,10,31,0.00,0,,198
2013-5-15,87,77,67,59,57,54,68,52,35,29.92,29.87,29.83,10,10,10,21,13,29,0.00,0,,237
2013-5-16,74,67,60,64,61,56,100,81,61,30.00,29.92,29.84,10,10,6,23,7,29,0.04,3,Rain,229
2013-5-17,80,70,59,66,61,57,100,74,48,30.03,29.99,29.96,10,7,2,17,4,22,T,4,Rain,162
2013-5-18,78,70,62,64,63,62,100,78,56,30.03,29.99,29.94,10,9,7,12,4,15,0.00,6,,89
2013-5-19,86,72,58,71,63,59,100,76,51,29.98,29.93,29.83,10,5,0,10,3,14,0.00,2,Fog,166
2013-5-20,85,77,69,71,68,65,100,78,55,29.94,29.89,29.82,10,9,4,17,9,22,0.00,3,,187
2013-5-21,81,72,62,68,64,61,100,77,54,29.94,29.84,29.77,10,9,3,32,10,48,0.28,4,Rain-Thunderstorm,198
2013-5-22,76,69,61,64,62,57,100,79,57,29.81,29.77,29.73,10,10,9,20,9,28,0.10,6,Rain,205
2013-5-23,67,58,49,61,55,44,100,84,68,30.16,29.95,29.81,10,10,5,17,8,24,T,7,Rain,302
2013-5-24,67,54,41,46,41,36,96,64,32,30.37,30.28,30.17,10,10,10,13,5,18,0.00,3,,5
2013-5-25,65,54,43,52,44,39,92,66,40,30.38,30.31,30.23,10,10,5,13,2,16,0.06,4,Rain,331
2013-5-26,69,60,50,58,52,48,96,76,56,30.29,30.22,30.14,10,10,2,14,6,18,0.02,6,Rain-Thunderstorm,121
2013-5-27,83,70,57,66,59,56,100,75,49,30.13,30.02,29.89,10,10,2,22,10,30,0.00,5,Rain-Thunderstorm,163
2013-5-28,82,73,63,67,64,60,100,78,55,29.97,29.93,29.88,10,10,10,28,12,37,0.00,0,,202
2013-5-29,87,79,71,64,59,55,79,58,36,30.04,30.00,29.96,10,10,10,18,9,26,0.00,2,,202
2013-5-30,85,77,68,67,65,63,84,70,55,30.05,30.00,29.94,10,10,10,23,10,30,0.07,2,Rain,171
2013-5-31,77,70,63,72,67,62,100,87,74,30.02,29.96,29.88,10,8,1,17,9,24,0.76,6,Rain,185